Battle Point — NMBY — position and weather

sailwx.info

Track history (hours):
 
Tides and Currents Weather Stations Pressure Air Temp Water Temp Dewpoint Dewpoint Depression Visibility Wind Speed Wind Dir Waves Ship Positions

Battle Point

Last reported at 2014-Jul-22 22:17 UTC. Time now 2014-Jul-24 17:44 UTC.
Position N 47°44' W 122°44'.

Length 57 m; draft 3.2 m.

MMSI: 369970254.

Date/timePositionNaut miles runAvg speedWind from/ knotsBaromVisibWave heightAir tempDewpointWater temp
2014-Jul-22 22:17N 47°44' W 122°44'4 5.7
2014-Jul-22 21:33N 47°48' W 122°42'9 9.5
2014-Jul-22 20:33N 47°57' W 122°37'8 7.9
2014-Jul-22 19:33N 47°52' W 122°28'9 8.7
2014-Jul-22 18:33N 47°44' W 122°30'5 4.5
2014-Jul-22 17:31N 47°42' W 122°37'2 0.1
2014-Jul-21 22:22N 47°40' W 122°36'7 9.1
2014-Jul-21 21:33N 47°34' W 122°32'0 0.3
2014-Jul-21 20:33N 47°34' W 122°32'0 0.0
2014-Jul-21 20:18N 47°34' W 122°32'0 0.0
2014-Jul-21 19:33N 47°34' W 122°32'0 0.0
2014-Jul-21 18:33N 47°34' W 122°32'0 0.0
2014-Jul-21 17:33N 47°34' W 122°32'0 0.0
2014-Jul-21 16:33N 47°34' W 122°32'0 0.0
2014-Jul-21 15:33N 47°34' W 122°32'4 3.8
2014-Jul-21 14:33N 47°37' W 122°35'  
2014-Jul-18 19:32N 47°43' W 122°34'8 7.8
2014-Jul-18 18:34N 47°49' W 122°28'10 9.6
2014-Jul-18 17:33N 47°57' W 122°37'8 8.0
2014-Jul-18 16:34N 47°49' W 122°40'  
2014-Jul-14 02:33N 47°46' W 122°44'8 7.7
2014-Jul-14 01:33N 47°52' W 122°37'5 4.6
2014-Jul-14 00:32N 47°57' W 122°38'1312.0
2014-Jul-13 23:27N 48°09' W 122°45'1010.6
2014-Jul-13 22:31N 48°19' W 122°47'1010.4
2014-Jul-13 21:33N 48°29' W 122°45'10 9.6
2014-Jul-13 20:33N 48°38' W 122°44'1010.1
2014-Jul-13 19:33N 48°47' W 122°52'1211.8
2014-Jul-13 18:33N 48°53' W 123°07'1212.0
2014-Jul-13 17:33N 49°00' W 123°22'1111.3
2014-Jul-13 16:33N 49°08' W 123°34'1111.3
2014-Jul-13 15:33N 49°14' W 123°50'1111.3
2014-Jul-13 14:33N 49°16' W 124°06'  
Track history (hours):
 
Tides and Currents Weather Stations Pressure Air Temp Water Temp Dewpoint Dewpoint Depression Visibility Wind Speed Wind Dir Waves Ship Positions

Battle Point

Last reported at 2014-Jul-22 22:17 UTC. Time now 2014-Jul-24 17:44 UTC.
Position N 47°44' W 122°44'.

Length 57 m; draft 3.2 m.

MMSI: 369970254.

Date/timePositionNaut miles runAvg speedWind from/ knotsBaromVisibWave heightAir tempDewpointWater temp
2014-Jul-22 22:17N 47°44' W 122°44'4 5.7
2014-Jul-22 21:33N 47°48' W 122°42'9 9.5
2014-Jul-22 20:33N 47°57' W 122°37'8 7.9
2014-Jul-22 19:33N 47°52' W 122°28'9 8.7
2014-Jul-22 18:33N 47°44' W 122°30'5 4.5
2014-Jul-22 17:31N 47°42' W 122°37'2 0.1
2014-Jul-21 22:22N 47°40' W 122°36'7 9.1
2014-Jul-21 21:33N 47°34' W 122°32'0 0.3
2014-Jul-21 20:33N 47°34' W 122°32'0 0.0
2014-Jul-21 20:18N 47°34' W 122°32'0 0.0
2014-Jul-21 19:33N 47°34' W 122°32'0 0.0
2014-Jul-21 18:33N 47°34' W 122°32'0 0.0
2014-Jul-21 17:33N 47°34' W 122°32'0 0.0
2014-Jul-21 16:33N 47°34' W 122°32'0 0.0
2014-Jul-21 15:33N 47°34' W 122°32'4 3.8
2014-Jul-21 14:33N 47°37' W 122°35'  
2014-Jul-18 19:32N 47°43' W 122°34'8 7.8
2014-Jul-18 18:34N 47°49' W 122°28'10 9.6
2014-Jul-18 17:33N 47°57' W 122°37'8 8.0
2014-Jul-18 16:34N 47°49' W 122°40'  
2014-Jul-14 02:33N 47°46' W 122°44'8 7.7
2014-Jul-14 01:33N 47°52' W 122°37'5 4.6
2014-Jul-14 00:32N 47°57' W 122°38'1312.0
2014-Jul-13 23:27N 48°09' W 122°45'1010.6
2014-Jul-13 22:31N 48°19' W 122°47'1010.4
2014-Jul-13 21:33N 48°29' W 122°45'10 9.6
2014-Jul-13 20:33N 48°38' W 122°44'1010.1
2014-Jul-13 19:33N 48°47' W 122°52'1211.8
2014-Jul-13 18:33N 48°53' W 123°07'1212.0
2014-Jul-13 17:33N 49°00' W 123°22'1111.3
2014-Jul-13 16:33N 49°08' W 123°34'1111.3
2014-Jul-13 15:33N 49°14' W 123°50'1111.3
2014-Jul-13 14:33N 49°16' W 124°06'  

Dump ship's entire track history